Campina Grande, Brazil
Current Conditions -  °F | °C
As of 11:00 AM on Thursday 23 Oct 2014 (Local Time) from SBKG Reporting Station
Broken Clouds Broken Clouds  
Wind Chill: 84°   Ceiling: 8000
Heat Index: 86°   Visibility: 6mi
Dew Point: 64°   Wind: 12mph
Humidity: 51%   Direction: 140°SE
Pressure: 30.03"   Gusts: NA
Location:  7.23°S, 35.88°W
Report Text: SBKG 231400Z 14010KT 9999 SCT032 BKN080 29/18 Q1017
Loading
Personal Weather Stations






























Interactive Weather Map
Tropical Storm Tracking
New forecast layout! Learn more

10-Day Weather Forecast

Advertisements
Track Severe Weather on mobile